createdAt,value
2018-06-14T00:00:54.561Z,12.34
2018-06-14T00:02:04.436Z,12.26
2018-06-14T00:03:14.600Z,12.26
2018-06-14T00:04:24.388Z,12.32
2018-06-14T00:05:34.563Z,12.2
2018-06-14T00:06:44.723Z,12.26
2018-06-14T00:07:54.861Z,12.23
2018-06-14T00:09:05.645Z,12.13
2018-06-14T00:10:15.809Z,12.15
2018-06-14T00:11:25.955Z,12.08
2018-06-14T00:12:36.182Z,12.04
2018-06-14T00:13:46.462Z,12.08
2018-06-14T00:14:56.676Z,12.09
2018-06-14T00:16:06.871Z,12.04
2018-06-14T00:17:17.043Z,11.99
2018-06-14T00:18:27.304Z,11.9
2018-06-14T00:19:37.454Z,11.91
2018-06-14T00:20:47.602Z,11.83
2018-06-14T00:21:57.726Z,11.74
2018-06-14T00:23:07.878Z,11.82
2018-06-14T00:24:17.748Z,11.76
2018-06-14T00:25:28.201Z,11.8
2018-06-14T00:26:38.426Z,11.83
2018-06-14T00:27:48.631Z,11.71
2018-06-14T00:28:58.821Z,11.72
2018-06-14T00:30:09.015Z,11.59
2018-06-14T00:31:19.207Z,11.61
2018-06-14T00:32:29.569Z,11.72
2018-06-14T00:33:39.760Z,11.58
2018-06-14T00:34:49.970Z,11.62
2018-06-14T00:36:00.218Z,11.59
2018-06-14T00:37:10.445Z,11.61
2018-06-14T00:38:20.307Z,11.57
2018-06-14T00:39:30.203Z,11.52
2018-06-14T00:40:40.337Z,11.48
2018-06-14T00:41:50.760Z,11.61
2018-06-14T00:43:00.964Z,11.57
2018-06-14T00:44:11.159Z,11.61
2018-06-14T00:45:21.384Z,11.59
2018-06-14T00:46:31.523Z,11.45
2018-06-14T00:47:41.403Z,11.49
2018-06-14T00:48:51.759Z,11.48
2018-06-14T00:50:01.911Z,11.48
2018-06-14T00:51:12.070Z,11.46
2018-06-14T00:52:22.323Z,11.35
2018-06-14T00:53:32.564Z,11.48
2018-06-14T00:54:42.758Z,11.39
2018-06-14T00:55:53.134Z,11.28
2018-06-14T00:57:03.263Z,11.48
2018-06-14T00:58:13.541Z,11.39
2018-06-14T00:59:23.412Z,11.38
2018-06-14T01:00:34.524Z,11.39
2018-06-14T01:01:44.657Z,11.31
2018-06-14T01:02:54.801Z,11.33
2018-06-14T01:04:04.981Z,11.28
2018-06-14T01:05:15.210Z,11.12
2018-06-14T01:06:25.352Z,11.15
2018-06-14T01:07:35.463Z,11.15
2018-06-14T01:08:45.592Z,11.16
2018-06-14T01:09:55.796Z,11.09
2018-06-14T01:11:05.926Z,11.1
2018-06-14T01:12:16.073Z,11
2018-06-14T01:13:26.310Z,11.08
2018-06-14T01:14:36.567Z,11.06
2018-06-14T01:15:46.734Z,11.06
2018-06-14T01:16:56.890Z,11.02
2018-06-14T01:18:07.098Z,10.98
2018-06-14T01:19:17.209Z,11.06
2018-06-14T01:20:27.407Z,11.03
2018-06-14T01:21:37.803Z,10.98
2018-06-14T01:22:48.146Z,11.06
2018-06-14T01:23:58.083Z,11.02
2018-06-14T01:25:08.219Z,10.98
2018-06-14T01:26:18.404Z,11.06
2018-06-14T01:27:28.563Z,11.03
2018-06-14T01:28:38.408Z,11.06
2018-06-14T01:29:48.556Z,11.15
2018-06-14T01:30:58.695Z,11.09
2018-06-14T01:32:08.892Z,11.15
2018-06-14T01:33:19.017Z,11.09
2018-06-14T01:34:28.899Z,11.12
2018-06-14T01:35:39.102Z,11
2018-06-14T01:36:49.445Z,11.13
2018-06-14T01:37:59.567Z,11.12
2018-06-14T01:39:09.681Z,11.05
2018-06-14T01:40:19.811Z,11.15
2018-06-14T01:41:29.659Z,11.15
2018-06-14T01:42:39.945Z,11.13
2018-06-14T01:43:50.141Z,11.13
2018-06-14T01:45:00.427Z,11.12
2018-06-14T01:46:10.612Z,11.12
2018-06-14T01:47:20.744Z,11.16
2018-06-14T01:48:30.941Z,11.09
2018-06-14T01:49:41.323Z,11.12
2018-06-14T01:50:51.459Z,11.13
2018-06-14T01:52:01.879Z,11.12
2018-06-14T01:53:12.025Z,11.1
2018-06-14T01:54:22.198Z,11.12
2018-06-14T01:55:32.350Z,11.13
2018-06-14T01:56:42.242Z,11.08
2018-06-14T01:57:52.129Z,11.12
2018-06-14T01:59:02.287Z,11.13
2018-06-14T02:00:12.448Z,11.16
2018-06-14T02:01:22.989Z,11.23
2018-06-14T02:02:33.356Z,11.12
2018-06-14T02:03:43.482Z,11.15
2018-06-14T02:04:53.649Z,11.17
2018-06-14T02:06:03.782Z,11.23
2018-06-14T02:07:13.908Z,11.2
2018-06-14T02:08:24.041Z,11.3
2018-06-14T02:09:34.159Z,11.39
2018-06-14T02:10:44.331Z,11.35
2018-06-14T02:11:54.724Z,11.27
2018-06-14T02:13:04.897Z,11.39
2018-06-14T02:14:15.024Z,11.43
2018-06-14T02:15:25.164Z,11.46
2018-06-14T02:16:35.414Z,11.49
2018-06-14T02:17:45.600Z,11.35
2018-06-14T02:18:55.839Z,11.42
2018-06-14T02:20:06.104Z,11.42
2018-06-14T02:21:16.325Z,11.45
2018-06-14T02:22:26.524Z,11.43
2018-06-14T02:23:36.765Z,11.38
2018-06-14T02:24:46.915Z,11.42
2018-06-14T02:25:57.103Z,11.45
2018-06-14T02:27:07.245Z,11.45
2018-06-14T02:28:17.385Z,11.38
2018-06-14T02:29:27.540Z,11.4
2018-06-14T02:30:37.662Z,11.39
2018-06-14T02:31:47.829Z,11.46
2018-06-14T02:32:57.702Z,11.46
2018-06-14T02:34:07.831Z,11.4
2018-06-14T02:35:18.025Z,11.34
2018-06-14T02:36:28.232Z,11.39
2018-06-14T02:37:38.376Z,11.43
2018-06-14T02:38:48.656Z,11.35
2018-06-14T02:39:58.868Z,11.49
2018-06-14T02:41:09.068Z,11.43
2018-06-14T02:42:19.270Z,11.43
2018-06-14T02:43:29.422Z,11.39
2018-06-14T02:44:39.300Z,11.38
2018-06-14T02:45:49.482Z,11.34
2018-06-14T02:46:59.625Z,11.39
2018-06-14T02:48:09.753Z,11.34
2018-06-14T02:49:19.909Z,11.35
2018-06-14T02:50:30.061Z,11.33
2018-06-14T02:51:40.202Z,11.33
2018-06-14T02:52:50.101Z,11.34
2018-06-14T02:54:00.262Z,11.31
2018-06-14T02:55:10.209Z,11.28
2018-06-14T02:56:20.403Z,11.3
2018-06-14T02:57:30.567Z,11.34
2018-06-14T02:58:40.572Z,11.33
2018-06-14T02:59:50.717Z,11.2
2018-06-14T03:01:00.867Z,11.28
2018-06-14T03:02:11.079Z,11.35
2018-06-14T03:03:21.281Z,11.27
2018-06-14T03:04:31.451Z,11.25
2018-06-14T03:05:41.630Z,11.15
2018-06-14T03:06:51.783Z,11.24
2018-06-14T03:08:01.911Z,11.24
2018-06-14T03:09:12.039Z,11.27
2018-06-14T03:10:22.197Z,11.23
2018-06-14T03:11:32.388Z,11.23
2018-06-14T03:12:42.385Z,11.12
2018-06-14T03:13:52.536Z,11.17
2018-06-14T03:15:02.685Z,11.16
2018-06-14T03:16:12.859Z,11.16
2018-06-14T03:17:23.196Z,11.2
2018-06-14T03:18:33.315Z,11.17
2018-06-14T03:19:43.483Z,11.15
2018-06-14T03:20:53.665Z,11.17
2018-06-14T03:22:03.865Z,11.23
2018-06-14T03:23:14.272Z,11.27
2018-06-14T03:24:24.427Z,11.2
2018-06-14T03:25:34.620Z,11.35
2018-06-14T03:26:44.833Z,11.24
2018-06-14T03:27:55.065Z,11.33
2018-06-14T03:29:05.318Z,11.34
2018-06-14T03:30:15.613Z,11.38
2018-06-14T03:31:25.516Z,11.33
2018-06-14T03:32:35.656Z,11.27
2018-06-14T03:33:45.648Z,11.33
2018-06-14T03:34:55.807Z,11.28
2018-06-14T03:36:05.951Z,11.3
2018-06-14T03:37:16.067Z,11.25
2018-06-14T03:38:26.191Z,11.33
2018-06-14T03:39:36.358Z,11.38
2018-06-14T03:40:46.827Z,11.33
2018-06-14T03:41:57.218Z,11.34
2018-06-14T03:43:07.171Z,11.35
2018-06-14T03:44:17.333Z,11.48
2018-06-14T03:45:27.465Z,11.45
2018-06-14T03:46:37.407Z,11.38
2018-06-14T03:47:47.553Z,11.42
2018-06-14T03:48:57.707Z,11.42
2018-06-14T03:50:07.857Z,11.4
2018-06-14T03:51:17.968Z,11.38
2018-06-14T03:52:28.147Z,11.43
2018-06-14T03:53:38.080Z,11.5
2018-06-14T03:54:48.226Z,11.46
2018-06-14T03:55:58.545Z,11.42
2018-06-14T03:57:08.669Z,11.34
2018-06-14T03:58:18.538Z,11.43
2018-06-14T03:59:28.793Z,11.49
2018-06-14T04:00:38.917Z,11.33
2018-06-14T04:01:49.060Z,11.46
2018-06-14T04:02:59.250Z,11.48
2018-06-14T04:04:09.689Z,11.38
2018-06-14T04:05:20.048Z,11.5
2018-06-14T04:06:30.198Z,11.35
2018-06-14T04:07:40.341Z,11.45
2018-06-14T04:08:50.497Z,11.4
2018-06-14T04:10:00.873Z,11.46
2018-06-14T04:11:11.305Z,11.5
2018-06-14T04:12:21.481Z,11.43
2018-06-14T04:13:31.389Z,11.39
2018-06-14T04:14:41.524Z,11.46
2018-06-14T04:15:51.697Z,11.45
2018-06-14T04:17:01.852Z,11.45
2018-06-14T04:18:12.109Z,11.5
2018-06-14T04:19:22.257Z,11.48
2018-06-14T04:20:32.661Z,11.53
2018-06-14T04:21:43.054Z,11.58
2018-06-14T04:22:52.942Z,11.46
2018-06-14T04:24:03.195Z,11.42
2018-06-14T04:25:13.431Z,11.53
2018-06-14T04:26:23.648Z,11.48
2018-06-14T04:27:33.915Z,11.61
2018-06-14T04:28:44.103Z,11.58
2018-06-14T04:29:54.514Z,11.5
2018-06-14T04:31:04.765Z,11.58
2018-06-14T04:32:14.913Z,11.52
2018-06-14T04:33:25.078Z,11.66
2018-06-14T04:34:35.221Z,11.59
2018-06-14T04:35:45.460Z,11.62
2018-06-14T04:36:55.838Z,11.57
2018-06-14T04:38:05.972Z,11.65
2018-06-14T04:39:15.862Z,11.64
2018-06-14T04:40:25.940Z,11.71
2018-06-14T04:41:35.847Z,11.77
2018-06-14T04:42:46.210Z,11.71
2018-06-14T04:43:56.385Z,11.74
2018-06-14T04:45:06.506Z,11.76
2018-06-14T04:46:16.634Z,11.83
2018-06-14T04:47:26.779Z,11.89
2018-06-14T04:48:37.007Z,11.84
2018-06-14T04:49:47.157Z,11.87
2018-06-14T04:50:57.418Z,11.89
2018-06-14T04:52:07.298Z,11.89
2018-06-14T04:53:17.477Z,11.95
2018-06-14T04:54:28.590Z,11.89
2018-06-14T04:55:38.850Z,11.94
2018-06-14T04:56:49.095Z,11.91
2018-06-14T04:57:59.278Z,11.91
2018-06-14T04:59:09.469Z,11.94
2018-06-14T05:00:19.625Z,11.94
2018-06-14T05:01:29.907Z,11.89
2018-06-14T05:02:40.129Z,11.89
2018-06-14T05:03:50.413Z,11.91
2018-06-14T05:05:00.649Z,11.99
2018-06-14T05:06:10.856Z,12.01
2018-06-14T05:07:21.062Z,12.01
2018-06-14T05:08:31.219Z,12.08
2018-06-14T05:09:41.468Z,12.08
2018-06-14T05:10:51.377Z,12.19
2018-06-14T05:12:01.579Z,12.24
2018-06-14T05:13:11.726Z,12.2
2018-06-14T05:14:21.903Z,12.27
2018-06-14T05:15:32.281Z,12.31
2018-06-14T05:16:42.414Z,12.39
2018-06-14T05:17:52.581Z,12.45
2018-06-14T05:19:02.811Z,12.41
2018-06-14T05:20:12.975Z,12.5
2018-06-14T05:21:23.109Z,12.48
2018-06-14T05:22:33.355Z,12.55
2018-06-14T05:23:43.567Z,12.66
2018-06-14T05:24:53.756Z,12.68
2018-06-14T05:26:04.051Z,12.71
2018-06-14T05:27:14.192Z,12.75
2018-06-14T05:28:24.403Z,12.8
2018-06-14T05:29:34.610Z,12.84
2018-06-14T05:30:44.920Z,12.85
2018-06-14T05:31:55.168Z,12.82
2018-06-14T05:33:05.356Z,12.92
2018-06-14T05:34:15.507Z,12.96
2018-06-14T05:35:25.828Z,12.92
2018-06-14T05:36:36.028Z,12.96
2018-06-14T05:37:46.434Z,13.01
2018-06-14T05:38:56.571Z,13.06
2018-06-14T05:40:06.721Z,13.13
2018-06-14T05:41:16.648Z,13.11
2018-06-14T05:42:26.942Z,13.21
2018-06-14T05:43:37.368Z,13.18
2018-06-14T05:44:47.680Z,13.22
2018-06-14T05:45:57.811Z,13.26
2018-06-14T05:47:07.995Z,13.34
2018-06-14T05:48:18.237Z,13.34
2018-06-14T05:49:28.420Z,13.33
2018-06-14T05:50:38.589Z,13.38
2018-06-14T05:51:48.786Z,13.45
2018-06-14T05:52:58.948Z,13.44
2018-06-14T05:54:09.104Z,13.49
2018-06-14T05:55:19.469Z,13.56
2018-06-14T05:56:29.728Z,13.59
2018-06-14T05:57:39.930Z,13.56
2018-06-14T05:58:50.174Z,13.59
2018-06-14T06:00:00.473Z,13.58
2018-06-14T06:01:10.608Z,13.69
2018-06-14T06:02:20.753Z,13.71
2018-06-14T06:03:30.874Z,13.82
2018-06-14T06:04:41.045Z,13.85
2018-06-14T06:05:51.327Z,13.92
2018-06-14T06:07:01.464Z,13.88
2018-06-14T06:08:11.601Z,13.99
2018-06-14T06:09:21.873Z,14
2018-06-14T06:10:32.063Z,14.04
2018-06-14T06:11:42.442Z,14.03
2018-06-14T06:12:52.593Z,14.02
2018-06-14T06:14:02.829Z,14.1
2018-06-14T06:15:12.993Z,14.18
2018-06-14T06:16:23.170Z,14.1
2018-06-14T06:17:33.403Z,14.13
2018-06-14T06:18:43.555Z,14.1
2018-06-14T06:19:54.084Z,14.13
2018-06-14T06:21:04.291Z,14.25
2018-06-14T06:22:14.461Z,14.25
2018-06-14T06:23:24.882Z,14.21
2018-06-14T06:24:35.196Z,14.24
2018-06-14T06:25:45.351Z,14.24
2018-06-14T06:26:55.488Z,14.29
2018-06-14T06:28:05.653Z,14.4
2018-06-14T06:29:15.663Z,14.43
2018-06-14T06:30:25.866Z,14.51
2018-06-14T06:31:36.028Z,14.31
2018-06-14T06:32:46.183Z,14.32
2018-06-14T06:33:56.458Z,14.39
2018-06-14T06:35:06.751Z,14.52
2018-06-14T06:36:16.955Z,14.44
2018-06-14T06:37:26.758Z,14.51
2018-06-14T06:38:36.951Z,14.4
2018-06-14T06:39:46.904Z,14.43
2018-06-14T06:40:57.025Z,14.51
2018-06-14T06:42:07.224Z,14.48
2018-06-14T06:43:17.403Z,14.45
2018-06-14T06:44:27.274Z,14.5
2018-06-14T06:45:37.400Z,14.5
2018-06-14T06:46:47.538Z,14.58
2018-06-14T06:47:58.315Z,14.6
2018-06-14T06:49:08.471Z,14.63
2018-06-14T06:50:18.619Z,14.69
2018-06-14T06:51:28.827Z,14.74
2018-06-14T06:52:39.074Z,14.7
2018-06-14T06:53:49.226Z,14.72
2018-06-14T06:54:59.480Z,14.72
2018-06-14T06:56:09.698Z,14.81
2018-06-14T06:57:20.054Z,14.8
2018-06-14T06:58:30.233Z,14.9
2018-06-14T06:59:40.410Z,14.85
2018-06-14T07:00:50.364Z,14.96
2018-06-14T07:02:00.513Z,14.98
2018-06-14T07:03:10.643Z,15.11
2018-06-14T07:04:20.815Z,15.08
2018-06-14T07:05:31.007Z,14.95
2018-06-14T07:06:41.172Z,14.96
2018-06-14T07:07:51.401Z,14.88
2018-06-14T07:09:01.582Z,14.81
2018-06-14T07:10:11.885Z,14.7
2018-06-14T07:11:22.098Z,14.7
2018-06-14T07:12:32.504Z,14.7
2018-06-14T07:13:42.661Z,14.63
2018-06-14T07:14:52.815Z,14.69
2018-06-14T07:16:03.041Z,14.65
2018-06-14T07:17:13.196Z,14.72
2018-06-14T07:18:23.467Z,14.63
2018-06-14T07:19:33.417Z,14.75
2018-06-14T07:20:43.571Z,14.69
2018-06-14T07:21:54.007Z,14.7
2018-06-14T07:23:04.577Z,14.74
2018-06-14T07:24:14.740Z,14.78
2018-06-14T07:25:24.897Z,14.84
2018-06-14T07:26:35.034Z,14.84
2018-06-14T07:27:45.343Z,14.84
2018-06-14T07:28:55.581Z,14.93
2018-06-14T07:30:05.728Z,14.91
2018-06-14T07:31:15.880Z,14.9
2018-06-14T07:32:26.199Z,14.95
2018-06-14T07:33:36.341Z,15.03
2018-06-14T07:34:46.500Z,15.06
2018-06-14T07:35:56.777Z,15.15
2018-06-14T07:37:06.937Z,15.29
2018-06-14T07:38:17.096Z,15.24
2018-06-14T07:39:27.015Z,15.17
2018-06-14T07:40:37.259Z,15.38
2018-06-14T07:41:47.455Z,15.39
2018-06-14T07:42:57.738Z,15.45
2018-06-14T07:44:08.302Z,15.53
2018-06-14T07:45:18.546Z,15.69
2018-06-14T07:46:28.757Z,15.61
2018-06-14T07:47:38.972Z,15.51
2018-06-14T07:48:49.109Z,15.63
2018-06-14T07:49:59.251Z,15.68
2018-06-14T07:51:09.401Z,15.7
2018-06-14T07:52:19.536Z,15.75
2018-06-14T07:53:29.726Z,15.79
2018-06-14T07:54:39.975Z,15.88
2018-06-14T07:55:50.191Z,15.84
2018-06-14T07:57:00.351Z,15.92
2018-06-14T07:58:10.517Z,15.92
2018-06-14T07:59:20.782Z,15.94
2018-06-14T08:00:30.593Z,15.96
2018-06-14T08:01:40.711Z,16.11
2018-06-14T08:02:50.934Z,16.21
2018-06-14T08:04:01.085Z,16.17
2018-06-14T08:05:11.249Z,16.11
2018-06-14T08:06:21.413Z,16.04
2018-06-14T08:07:31.373Z,16.01
2018-06-14T08:08:41.588Z,16.01
2018-06-14T08:09:51.748Z,16.17
2018-06-14T08:11:01.951Z,16.17
2018-06-14T08:12:12.191Z,16.19
2018-06-14T08:13:22.445Z,16.31
2018-06-14T08:14:32.608Z,16.27
2018-06-14T08:15:42.921Z,16.31
2018-06-14T08:16:53.140Z,16.31
2018-06-14T08:18:03.376Z,16.32
2018-06-14T08:19:13.588Z,16.32
2018-06-14T08:20:23.814Z,16.38
2018-06-14T08:21:34.015Z,16.39
2018-06-14T08:22:44.186Z,16.46
2018-06-14T08:23:54.408Z,16.57
2018-06-14T08:25:04.680Z,16.71
2018-06-14T08:26:14.871Z,16.76
2018-06-14T08:27:25.090Z,16.86
2018-06-14T08:28:35.365Z,16.87
2018-06-14T08:29:45.578Z,16.98
2018-06-14T08:30:55.767Z,16.99
2018-06-14T08:32:06.195Z,16.99
2018-06-14T08:33:16.339Z,16.99
2018-06-14T08:34:26.497Z,16.93
2018-06-14T08:35:36.673Z,16.82
2018-06-14T08:36:46.893Z,16.76
2018-06-14T08:37:57.205Z,16.72
2018-06-14T08:39:07.418Z,16.76
2018-06-14T08:40:17.618Z,16.84
2018-06-14T08:41:27.786Z,16.99
2018-06-14T08:42:37.901Z,17.2
2018-06-14T08:43:48.136Z,17.39
2018-06-14T08:44:58.457Z,17.39
2018-06-14T08:46:08.650Z,17.61
2018-06-14T08:47:18.865Z,17.62
2018-06-14T08:48:29.041Z,17.76
2018-06-14T08:49:39.319Z,17.83
2018-06-14T08:50:49.551Z,17.87
2018-06-14T08:51:59.835Z,17.95
2018-06-14T08:53:10.042Z,17.95
2018-06-14T08:54:20.248Z,18.05
2018-06-14T08:55:30.462Z,18.09
2018-06-14T08:56:40.611Z,18.34
2018-06-14T08:57:50.528Z,18.72
2018-06-14T08:59:00.703Z,19.24
2018-06-14T09:00:10.848Z,19.82
2018-06-14T09:01:21.011Z,20.53
2018-06-14T09:02:31.180Z,21.08
2018-06-14T09:03:41.338Z,21.33
2018-06-14T09:04:51.472Z,21.76
2018-06-14T09:06:01.671Z,22.31
2018-06-14T09:07:11.959Z,22.7
2018-06-14T09:08:22.112Z,23.13
2018-06-14T09:09:32.262Z,23.31
2018-06-14T09:10:42.428Z,23.35
2018-06-14T09:11:52.622Z,23.57
2018-06-14T09:13:02.775Z,23.65
2018-06-14T09:14:13.033Z,23.69
2018-06-14T09:15:23.351Z,23.79
2018-06-14T09:16:33.560Z,24.07
2018-06-14T09:17:43.715Z,24.22
2018-06-14T09:18:53.617Z,24.24
2018-06-14T09:20:03.786Z,24.32
2018-06-14T09:21:13.921Z,24.38
2018-06-14T09:22:24.086Z,24.2
2018-06-14T09:23:34.287Z,24.05
2018-06-14T09:24:44.147Z,24.07
2018-06-14T09:25:54.393Z,24.06
2018-06-14T09:27:04.553Z,24.17
2018-06-14T09:28:14.816Z,24.25
2018-06-14T09:29:24.998Z,24.31
2018-06-14T09:30:35.195Z,24.35
2018-06-14T09:31:45.450Z,24.4
2018-06-14T09:32:55.701Z,24.47
2018-06-14T09:34:05.865Z,24.6
2018-06-14T09:35:16.133Z,24.88
2018-06-14T09:36:26.314Z,25.21
2018-06-14T09:37:36.560Z,25.62
2018-06-14T09:38:46.742Z,25.96
2018-06-14T09:39:56.624Z,26.36
2018-06-14T09:41:06.592Z,26.36
2018-06-14T09:42:16.845Z,26.41
2018-06-14T09:43:27.024Z,26.3
2018-06-14T09:44:37.260Z,26.04
2018-06-14T09:45:47.170Z,25.97
2018-06-14T09:46:57.334Z,25.97
2018-06-14T09:48:07.544Z,25.84
2018-06-14T09:49:17.798Z,25.77
2018-06-14T09:50:28.112Z,25.88
2018-06-14T09:51:38.284Z,25.9
2018-06-14T09:52:48.167Z,25.93
2018-06-14T09:53:58.378Z,25.77
2018-06-14T09:55:08.528Z,25.56
2018-06-14T09:56:18.703Z,25.52
2018-06-14T09:57:28.876Z,25.66
2018-06-14T09:58:39.097Z,25.68
2018-06-14T09:59:49.305Z,25.62
2018-06-14T10:00:59.917Z,25.69
2018-06-14T10:02:10.110Z,25.65
2018-06-14T10:03:20.355Z,25.59
2018-06-14T10:04:30.568Z,25.5
2018-06-14T10:05:40.753Z,25.49
2018-06-14T10:06:51.029Z,25.36
2018-06-14T10:08:01.316Z,25.27
2018-06-14T10:09:11.617Z,25.24
2018-06-14T10:10:21.798Z,25.17
2018-06-14T10:11:32.032Z,25.27
2018-06-14T10:12:42.187Z,25.4
2018-06-14T10:13:52.003Z,25.54
2018-06-14T10:15:02.169Z,25.49
2018-06-14T10:16:13.521Z,25.59
2018-06-14T10:17:23.696Z,25.69
2018-06-14T10:18:34.122Z,25.9
2018-06-14T10:19:45.475Z,25.93
2018-06-14T10:20:55.713Z,26.12
2018-06-14T10:22:06.509Z,26.31
2018-06-14T10:23:16.682Z,26.33
2018-06-14T10:24:26.947Z,26.41
2018-06-14T10:25:37.168Z,26.61
2018-06-14T10:26:47.394Z,26.8
2018-06-14T10:27:58.210Z,26.67
2018-06-14T10:29:08.135Z,26.48
2018-06-14T10:30:18.392Z,26.37
2018-06-14T10:31:28.253Z,26.36
2018-06-14T10:32:38.436Z,26.36
2018-06-14T10:33:48.612Z,26.36
2018-06-14T10:34:58.817Z,26.48
2018-06-14T10:36:09.038Z,26.58
2018-06-14T10:37:19.228Z,26.49
2018-06-14T10:38:29.513Z,26.39
2018-06-14T10:39:39.755Z,26.34
2018-06-14T10:40:49.963Z,26.43
2018-06-14T10:42:00.133Z,26.43
2018-06-14T10:43:10.312Z,26.41
2018-06-14T10:44:20.217Z,26.4
2018-06-14T10:45:30.397Z,26.04
2018-06-14T10:46:40.708Z,25.96
2018-06-14T10:47:50.237Z,25.93
2018-06-14T10:49:01.491Z,25.94
2018-06-14T10:50:12.631Z,25.99
2018-06-14T10:51:22.972Z,25.99
2018-06-14T10:52:33.380Z,25.97
2018-06-14T10:53:43.583Z,25.68
2018-06-14T10:54:53.758Z,25.65
2018-06-14T10:56:03.928Z,25.68
2018-06-14T10:57:14.146Z,25.93
2018-06-14T10:58:24.035Z,25.92
2018-06-14T10:59:34.210Z,25.78
2018-06-14T11:00:44.440Z,25.71
2018-06-14T11:01:54.619Z,25.5
2018-06-14T11:03:04.805Z,25.4
2018-06-14T11:04:14.971Z,25.36
2018-06-14T11:05:25.427Z,25.5
2018-06-14T11:06:35.807Z,25.65
2018-06-14T11:07:46.017Z,25.76
2018-06-14T11:08:56.195Z,25.82
2018-06-14T11:10:06.418Z,25.69
2018-06-14T11:11:16.603Z,25.64
2018-06-14T11:12:27.125Z,25.55
2018-06-14T11:13:37.320Z,25.69
2018-06-14T11:14:47.501Z,25.64
2018-06-14T11:15:57.799Z,25.43
2018-06-14T11:17:08.012Z,25.32
2018-06-14T11:18:18.205Z,25.21
2018-06-14T11:19:28.377Z,25.1
2018-06-14T11:20:38.556Z,25.05
2018-06-14T11:21:48.511Z,25.12
2018-06-14T11:22:58.830Z,25.19
2018-06-14T11:24:09.232Z,25.15
2018-06-14T11:25:19.428Z,25.09
2018-06-14T11:26:29.826Z,25.06
2018-06-14T11:27:40.041Z,25.06
2018-06-14T11:28:50.262Z,25.25
2018-06-14T11:30:00.878Z,25.42
2018-06-14T11:31:11.427Z,25.61
2018-06-14T11:32:21.626Z,25.65
2018-06-14T11:33:31.844Z,25.64
2018-06-14T11:34:42.063Z,25.34
2018-06-14T11:35:52.234Z,25.21
2018-06-14T11:37:02.551Z,25.13
2018-06-14T11:38:12.763Z,25.17
2018-06-14T11:39:23.054Z,25.03
2018-06-14T11:40:33.252Z,25.02
2018-06-14T11:41:43.551Z,25.02
2018-06-14T11:42:53.768Z,25.24
2018-06-14T11:44:03.958Z,25.25
2018-06-14T11:45:14.148Z,25.18
2018-06-14T11:46:24.324Z,25.27
2018-06-14T11:47:34.583Z,25.44
2018-06-14T11:48:45.013Z,25.39
2018-06-14T11:49:55.194Z,25.43
2018-06-14T11:51:05.220Z,25.4
2018-06-14T11:52:15.481Z,25.54
2018-06-14T11:53:25.736Z,25.54
2018-06-14T11:54:35.948Z,25.34
2018-06-14T11:55:46.115Z,25.19
2018-06-14T11:56:56.307Z,25.31
2018-06-14T11:58:06.208Z,25.15
2018-06-14T11:59:16.436Z,25.1
2018-06-14T12:00:26.612Z,25.25
2018-06-14T12:01:36.800Z,25.44
2018-06-14T12:02:47.380Z,25.68
2018-06-14T12:03:57.673Z,25.88
2018-06-14T12:05:07.593Z,25.68
2018-06-14T12:06:17.838Z,25.54
2018-06-14T12:07:28.053Z,25.32
2018-06-14T12:08:38.278Z,25.36
2018-06-14T12:09:48.471Z,25.12
2018-06-14T12:10:58.727Z,24.88
2018-06-14T12:12:08.645Z,24.76
2018-06-14T12:13:18.900Z,24.5
2018-06-14T12:14:29.175Z,24.39
2018-06-14T12:15:39.437Z,24.35
2018-06-14T12:16:49.385Z,24.51
2018-06-14T12:17:59.603Z,24.44
2018-06-14T12:19:09.830Z,24.24
2018-06-14T12:20:20.022Z,24.24
2018-06-14T12:21:30.431Z,24.15
2018-06-14T12:22:40.764Z,24.2
2018-06-14T12:23:50.975Z,24.07
2018-06-14T12:25:01.193Z,24.07
2018-06-14T12:26:11.407Z,24.05
2018-06-14T12:27:21.595Z,24.05
2018-06-14T12:28:31.840Z,24.06
2018-06-14T12:29:42.187Z,24.05
2018-06-14T12:30:52.345Z,23.97
2018-06-14T12:32:02.606Z,23.94
2018-06-14T12:33:12.819Z,23.92
2018-06-14T12:34:22.993Z,23.79
2018-06-14T12:35:32.821Z,23.73
2018-06-14T12:36:43.057Z,23.58
2018-06-14T12:37:53.002Z,23.68
2018-06-14T12:39:03.248Z,23.58
2018-06-14T12:40:13.586Z,23.63
2018-06-14T12:41:23.802Z,23.73
2018-06-14T12:42:34.028Z,23.77
2018-06-14T12:43:44.227Z,23.77
2018-06-14T12:44:54.441Z,23.91
2018-06-14T12:46:04.620Z,23.76
2018-06-14T12:47:14.881Z,23.72
2018-06-14T12:48:25.090Z,23.58
2018-06-14T12:49:35.403Z,23.38
2018-06-14T12:50:45.586Z,23.38
2018-06-14T12:51:55.837Z,23.11
2018-06-14T12:53:06.018Z,23.05
2018-06-14T12:54:16.433Z,23.18
2018-06-14T12:55:26.645Z,23.06
2018-06-14T12:56:36.870Z,23.01
2018-06-14T12:57:47.058Z,22.93
2018-06-14T12:58:56.984Z,22.79
2018-06-14T13:00:07.230Z,22.82
2018-06-14T13:01:17.536Z,22.79
2018-06-14T13:02:27.750Z,22.73
2018-06-14T13:03:38.000Z,22.82
2018-06-14T13:04:48.196Z,22.9
2018-06-14T13:05:58.374Z,22.89
2018-06-14T13:07:08.555Z,22.96
2018-06-14T13:08:18.859Z,22.9
2018-06-14T13:09:29.026Z,22.86
2018-06-14T13:10:39.291Z,22.89
2018-06-14T13:11:49.568Z,22.87
2018-06-14T13:12:59.751Z,22.89
2018-06-14T13:14:09.960Z,22.93
2018-06-14T13:15:20.190Z,22.89
2018-06-14T13:16:30.409Z,22.96
2018-06-14T13:17:40.593Z,23.05
2018-06-14T13:18:50.521Z,23.01
2018-06-14T13:20:00.752Z,22.86
2018-06-14T13:21:11.339Z,22.85
2018-06-14T13:22:21.557Z,22.87
2018-06-14T13:23:31.764Z,23.03
2018-06-14T13:24:41.978Z,23.02
2018-06-14T13:25:52.260Z,23.06
2018-06-14T13:27:02.502Z,23.03
2018-06-14T13:28:12.707Z,22.87
2018-06-14T13:29:22.876Z,22.65
2018-06-14T13:30:33.071Z,22.55
2018-06-14T13:31:43.350Z,22.46
2018-06-14T13:32:53.611Z,22.31
2018-06-14T13:34:03.865Z,22.18
2018-06-14T13:35:14.092Z,22.27
2018-06-14T13:36:24.291Z,22.23
2018-06-14T13:37:34.505Z,22.28
2018-06-14T13:38:44.686Z,22.3
2018-06-14T13:39:54.606Z,22.33
2018-06-14T13:41:04.785Z,22.43
2018-06-14T13:42:15.012Z,22.57
2018-06-14T13:43:25.225Z,22.64
2018-06-14T13:44:35.468Z,22.67
2018-06-14T13:45:45.971Z,22.8
2018-06-14T13:46:56.234Z,22.82
2018-06-14T13:48:06.447Z,22.82
2018-06-14T13:49:16.967Z,22.83
2018-06-14T13:50:27.310Z,22.89
2018-06-14T13:51:37.624Z,22.96
2018-06-14T13:52:47.828Z,22.99
2018-06-14T13:53:57.774Z,22.9
2018-06-14T13:55:08.211Z,22.86
2018-06-14T13:56:18.508Z,22.87
2018-06-14T13:57:28.757Z,22.87
2018-06-14T13:58:38.999Z,22.86
2018-06-14T13:59:49.211Z,22.89
2018-06-14T14:00:59.782Z,22.85
2018-06-14T14:02:10.632Z,22.89
2018-06-14T14:03:20.967Z,22.87
2018-06-14T14:04:31.312Z,22.86
2018-06-14T14:05:41.484Z,22.82
2018-06-14T14:06:51.696Z,22.63
2018-06-14T14:08:01.865Z,22.53
2018-06-14T14:09:12.050Z,22.63
2018-06-14T14:10:22.277Z,22.58
2018-06-14T14:11:32.471Z,22.64
2018-06-14T14:12:42.650Z,22.65
2018-06-14T14:13:52.595Z,22.68
2018-06-14T14:15:02.531Z,22.67
2018-06-14T14:16:12.938Z,22.73
2018-06-14T14:17:23.169Z,22.67
2018-06-14T14:18:33.093Z,22.7
2018-06-14T14:19:43.054Z,22.63
2018-06-14T14:20:53.228Z,22.65
2018-06-14T14:22:03.450Z,22.67
2018-06-14T14:23:13.649Z,22.49
2018-06-14T14:24:23.831Z,22.5
2018-06-14T14:25:34.106Z,22.6
2018-06-14T14:26:44.019Z,22.61
2018-06-14T14:27:54.815Z,22.58
2018-06-14T14:29:06.227Z,22.43
2018-06-14T14:30:16.433Z,22.48
2018-06-14T14:31:26.828Z,22.42
2018-06-14T14:32:37.289Z,22.42
2018-06-14T14:33:47.536Z,22.42
2018-06-14T14:34:57.822Z,22.4
2018-06-14T14:36:08.225Z,22.43
2018-06-14T14:37:18.398Z,22.42
2018-06-14T14:38:28.663Z,22.52
2018-06-14T14:39:38.589Z,22.33
2018-06-14T14:40:48.873Z,22.46
2018-06-14T14:41:59.112Z,22.33
2018-06-14T14:43:09.140Z,22.33
2018-06-14T14:44:19.548Z,22.33
2018-06-14T14:45:29.481Z,22.3
2018-06-14T14:46:39.689Z,22.4
2018-06-14T14:47:50.099Z,22.43
2018-06-14T14:49:00.352Z,22.46
2018-06-14T14:50:10.767Z,22.49
2018-06-14T14:51:20.976Z,22.45
2018-06-14T14:52:30.886Z,22.53
2018-06-14T14:53:41.098Z,22.53
2018-06-14T14:54:51.494Z,22.49
2018-06-14T14:56:01.833Z,22.5
2018-06-14T14:57:12.024Z,22.48
2018-06-14T14:58:22.212Z,22.68
2018-06-14T14:59:32.494Z,22.65
2018-06-14T15:00:42.790Z,22.71
2018-06-14T15:01:52.996Z,22.7
2018-06-14T15:03:03.227Z,22.65
2018-06-14T15:04:13.447Z,22.61
2018-06-14T15:05:23.461Z,22.5
2018-06-14T15:06:33.830Z,22.61
2018-06-14T15:07:44.172Z,22.5